Airfield :
LOGIN :

Register | Disclaimer

   EN    FR    IT 

 










Legend :    VFR   Marginal VFR   IFR   Intensive IFR   Very Intensive IFR
Visi :
Ceiling :
>= 8 km
>= 3000ft
5 to 8 km
1000 to 3000 ft
1500m to 5 km
500 to 1000 ft
800 to 1500m
200 to 500 ft
< 800m
< 200 ft
Symbols :   Thunderstorms  Fog  Heavy snow  Heavy precipitations  Wind > 20 kt
SIGMETs :     Misc.  Thunderstorms  Icing  Turbulence  Mountain Waves  Volcanic Ashes







- Airport Elevation : 280 ft
- IATA code : FAE


EKVG - Vagar

CURRENT METAR :
  • 191720Z 25003KT 1500 -DZ BR FEW000 SCT001 BKN002 11/11 Q1020

EXPIRED METARs :
  • 191718Z 24003KT 1500 -DZ BR FEW000 SCT001 BKN002 11/11 Q1020
  • 191650Z 24003KT 1500 -DZ BR FEW000 SCT001 BKN002 11/11 Q1020
  • 191621Z 24005KT 1500 -DZ BR FEW000 SCT001 BKN002 11/11 Q1020
  • 191553Z VRB02KT 1500 BR -DZ FEW000 SCT001 BKN002 11/11 Q1020
  • 191524Z 25005KT 200V300 1000 R12/P2000N R30/P2000D PRFG -DZ FEW000 BKN001 11/11 Q1020
  • 191450Z 24002KT 1000 R12/P2000N R30/P2000N PRFG DZ FEW000 BKN002 11/11 Q1020

TAF TAF EKVG
Valid from the 19 at 15:00 until the 19 at 20:00 UTC


191429Z 1915/1920 25010KT 0500 FG BKN001
TEMPO 1915/1920 2000 RADZ BKN008
No reported NOTAMs for that airfield.



MET'MAP, your aeronautical weather chart ! - Copyright ORBIFLY December 2007 - Disclaimer

ORBIFLY MET'MAP TEAM :

Programming & Development : Alexandra Zaïnal
Concept & Development : Baudouin d'Aumeries
Co-Development & Prog : Marc-Olivier Méhu
Technical & hardware support : Manuel Goepfert

Contact : metmap@orbifly.com




SOURCES & CREDITS :

   NOAA